Skip Navigation LinksHome page > Weather > Current weather Skip Navigation Links

Current Weather

Chicago O'Hare Intl, Chicago

For information only: do not use for flight planning or navigation.
Latest weather
Observation time Thursday, April 17, 2014 1:51 AM CDT
Local time Thursday, April 17, 2014 1:59 AM CDT
Flight conditions Visual Meteorological Conditions
Winds
Wind direction South-Southeast (150°)
Wind speed 13 mph
Visibility 10 mi.
Sky condition
Ceiling 24,000 ft. broken clouds
Cloud layer few clouds 17,000 ft.
Cloud layer broken clouds 24,000 ft.
Temperature 42°F
Dewpoint 23°F
Altimeter 30.14 in.Hg
Derived measurements
Relative humidity 46%
Wind chill 35°F
Density altitude -1317 ft.
Sea-level pressure 30.15 in.Hg
Remarks
System requires maintenance.
Automated weather observing station with precipitation discriminator.
METAR KORD 170651Z 15011KT 10SM FEW170 BKN240 06/M05 A3014 RMK AO2 SLP211 T00561050 $

Settings

Location code

InnerDrive.Weather 4.0.4869.0 Release CLR 4.0.30319.18449
Copyright ©2013 Inner Drive Technology. All rights reserved. Portions Copyright ©1986-2013 David Braverman.

Find weather

Site navigation


Skip Navigation Links

Place info

Page info

PayPal - The safer, easier way to pay online!

Return home.

Copyright ©2014 Inner Drive Technology. Purveyors of fine, hand-crafted computer software. Page printed 2014-04-17T06:59:13 UTC.